Time;durP1;ratioP1;P1;durP2;ratioP2;P2;SDS_P1;SDS_P2;PMS_P1;PMS_P2;Temp;Humidity;BMP_temperature;BMP_pressure;BME280_temperature;BME280_humidity;BME280_pressure;Samples;Min_cycle;Max_cycle;Signal;HPM_P1;HPM_P2
2023/01/11 00:01:51;;;;;;;1.55;0.70;;;;;;;;;;5079117;28;20017;-42
2023/01/11 00:04:18;;;;;;;2.25;1.15;;;;;;;;;;5080036;28;20606;-42
2023/01/11 00:06:44;;;;;;;2.53;0.85;;;;;;;;;;5062546;28;20411;-42
2023/01/11 00:09:10;;;;;;;1.33;0.77;;;;;;;;;;5079143;28;20020;-43
2023/01/11 00:11:36;;;;;;;3.17;0.80;;;;;;;;;;5081978;28;20047;-42
2023/01/11 00:14:02;;;;;;;1.58;0.80;;;;;;;;;;5078993;28;20025;-42
2023/01/11 00:16:28;;;;;;;2.42;0.65;;;;;;;;;;5076525;28;20032;-42
2023/01/11 00:18:55;;;;;;;1.10;0.60;;;;;;;;;;5081988;28;20024;-42
2023/01/11 00:21:21;;;;;;;1.30;0.70;;;;;;;;;;5079746;28;20028;-42
2023/01/11 00:23:49;;;;;;;1.20;0.73;;;;;;;;;;5078699;28;20037;-42
2023/01/11 00:26:15;;;;;;;1.05;0.65;;;;;;;;;;5080777;28;20035;-42
2023/01/11 00:28:41;;;;;;;2.45;0.70;;;;;;;;;;5080319;28;20035;-43
2023/01/11 00:31:07;;;;;;;1.38;0.82;;;;;;;;;;5080952;28;20082;-42
2023/01/11 00:33:33;;;;;;;1.73;0.88;;;;;;;;;;5080419;28;20031;-42
2023/01/11 00:35:59;;;;;;;1.85;0.80;;;;;;;;;;5079861;28;20029;-42
2023/01/11 00:38:45;;;;;;;1.02;0.65;;;;;;;;;;5079787;28;20069;-43
2023/01/11 00:49:26;;;;;;;0.90;0.47;;;;;;;;;;5076404;28;20027;-42
2023/01/11 00:51:52;;;;;;;2.03;0.80;;;;;;;;;;5083521;28;20028;-44
2023/01/11 00:54:19;;;;;;;1.60;0.65;;;;;;;;;;5085155;28;20059;-44
2023/01/11 00:56:45;;;;;;;2.38;0.80;;;;;;;;;;5075593;28;20097;-42
2023/01/11 00:59:11;;;;;;;3.10;0.68;;;;;;;;;;5079165;28;20028;-43
2023/01/11 01:01:37;;;;;;;1.17;0.77;;;;;;;;;;5079049;28;20028;-43
2023/01/11 01:04:03;;;;;;;1.77;0.73;;;;;;;;;;5080445;28;20036;-43
2023/01/11 01:06:29;;;;;;;2.05;0.70;;;;;;;;;;5078391;28;20052;-43
2023/01/11 01:08:55;;;;;;;0.90;0.55;;;;;;;;;;5078370;28;20050;-42
2023/01/11 01:11:21;;;;;;;1.70;0.93;;;;;;;;;;5080855;28;20457;-42
2023/01/11 01:16:32;;;;;;;0.68;0.57;;;;;;;;;;5077029;28;20547;-42
2023/01/11 01:18:58;;;;;;;1.33;0.68;;;;;;;;;;5080752;28;20086;-41
2023/01/11 01:21:25;;;;;;;1.27;0.60;;;;;;;;;;5083110;28;20039;-42
2023/01/11 01:23:52;;;;;;;1.23;0.60;;;;;;;;;;5086764;28;20031;-43
2023/01/11 01:26:18;;;;;;;0.77;0.55;;;;;;;;;;5083617;28;20024;-43
2023/01/11 01:28:44;;;;;;;1.65;0.77;;;;;;;;;;5085184;28;20431;-42
2023/01/11 01:31:10;;;;;;;1.60;0.50;;;;;;;;;;5078468;28;20064;-42
2023/01/11 01:33:36;;;;;;;1.42;0.50;;;;;;;;;;5088646;28;20036;-42
2023/01/11 01:36:02;;;;;;;1.63;0.50;;;;;;;;;;5087449;28;20024;-42
2023/01/11 01:38:28;;;;;;;1.40;0.60;;;;;;;;;;5078873;28;20098;-42
2023/01/11 01:40:55;;;;;;;1.30;0.80;;;;;;;;;;5088117;28;20040;-43
2023/01/11 01:43:22;;;;;;;1.98;0.57;;;;;;;;;;5080601;28;20036;-42
2023/01/11 01:45:51;;;;;;;0.85;0.52;;;;;;;;;;5083555;28;20521;-42
2023/01/11 01:48:20;;;;;;;0.90;0.60;;;;;;;;;;5071807;28;20016;-43
2023/01/11 01:50:48;;;;;;;1.33;0.70;;;;;;;;;;5076734;28;20044;-42
2023/01/11 01:53:16;;;;;;;1.10;0.52;;;;;;;;;;5083096;28;20028;-44
2023/01/11 01:55:44;;;;;;;1.13;0.50;;;;;;;;;;5081870;28;20025;-42
2023/01/11 01:58:12;;;;;;;0.90;0.52;;;;;;;;;;5081565;28;20051;-42
2023/01/11 02:00:39;;;;;;;0.98;0.43;;;;;;;;;;5085401;28;20024;-43
2023/01/11 02:03:05;;;;;;;0.80;0.50;;;;;;;;;;5082811;28;20523;-43
2023/01/11 02:05:31;;;;;;;1.30;0.60;;;;;;;;;;5085559;28;20031;-43
2023/01/11 02:07:58;;;;;;;0.90;0.40;;;;;;;;;;5085879;28;20095;-42
2023/01/11 02:10:26;;;;;;;1.20;0.60;;;;;;;;;;5082474;28;20064;-41
2023/01/11 02:12:55;;;;;;;1.10;0.80;;;;;;;;;;5081932;28;20488;-42
2023/01/11 02:15:22;;;;;;;1.25;0.75;;;;;;;;;;5081195;28;20028;-43
2023/01/11 02:17:48;;;;;;;0.82;0.52;;;;;;;;;;5091514;28;20029;-46
2023/01/11 02:20:17;;;;;;;1.05;0.50;;;;;;;;;;5083271;28;20020;-45
2023/01/11 02:22:58;;;;;;;1.20;0.50;;;;;;;;;;5064277;28;20040;-41
2023/01/11 02:25:27;;;;;;;1.25;0.50;;;;;;;;;;5084075;28;20028;-42
2023/01/11 02:28:12;;;;;;;1.73;0.40;;;;;;;;;;5079442;28;20031;-42
2023/01/11 02:30:55;;;;;;;1.15;0.50;;;;;;;;;;5073642;28;20083;-42
2023/01/11 02:33:28;;;;;;;0.98;0.40;;;;;;;;;;5082216;28;20036;-41
2023/01/11 02:36:12;;;;;;;0.52;0.40;;;;;;;;;;5081806;28;20081;-42
2023/01/11 02:38:43;;;;;;;1.83;0.63;;;;;;;;;;5087635;28;20069;-46
2023/01/11 02:41:18;;;;;;;0.90;0.40;;;;;;;;;;5082202;28;20032;-43
2023/01/11 02:46:34;;;;;;;0.50;0.40;;;;;;;;;;5073741;28;20043;-44
2023/01/11 02:49:13;;;;;;;2.83;0.77;;;;;;;;;;5080071;28;20126;-43
2023/01/11 02:51:41;;;;;;;1.60;0.60;;;;;;;;;;5083546;28;20025;-43
2023/01/11 02:54:09;;;;;;;1.70;0.63;;;;;;;;;;5082853;28;20028;-42
2023/01/11 02:56:40;;;;;;;0.82;0.47;;;;;;;;;;5077278;28;20032;-42
2023/01/11 02:59:09;;;;;;;0.70;0.52;;;;;;;;;;5082267;28;20028;-42
2023/01/11 03:01:43;;;;;;;1.42;0.60;;;;;;;;;;5084129;28;20035;-43
2023/01/11 03:04:21;;;;;;;0.95;0.40;;;;;;;;;;5072121;28;20036;-43
2023/01/11 03:06:48;;;;;;;0.68;0.40;;;;;;;;;;5080796;28;20493;-42
2023/01/11 03:09:17;;;;;;;0.65;0.32;;;;;;;;;;5066660;28;20071;-44
2023/01/11 03:14:49;;;;;;;0.50;0.40;;;;;;;;;;5086324;28;20433;-44
2023/01/11 03:17:35;;;;;;;0.60;0.40;;;;;;;;;;5072804;28;20024;-46
2023/01/11 03:20:12;;;;;;;0.60;0.40;;;;;;;;;;5082369;28;20423;-44
2023/01/11 03:22:41;;;;;;;0.40;0.30;;;;;;;;;;5079208;28;20048;-44
2023/01/11 03:25:25;;;;;;;1.05;0.70;;;;;;;;;;5078650;28;20073;-46
2023/01/11 03:27:54;;;;;;;0.57;0.45;;;;;;;;;;5074947;28;20025;-42
2023/01/11 03:30:28;;;;;;;1.20;0.40;;;;;;;;;;5085533;28;20038;-42
2023/01/11 03:33:01;;;;;;;1.00;0.60;;;;;;;;;;5082404;28;20380;-42
2023/01/11 03:35:42;;;;;;;1.15;0.40;;;;;;;;;;5073153;28;20048;-45
2023/01/11 03:38:21;;;;;;;0.65;0.50;;;;;;;;;;5075329;28;20020;-43
2023/01/11 03:40:51;;;;;;;1.90;0.82;;;;;;;;;;5069005;28;20052;-43
2023/01/11 03:43:18;;;;;;;1.05;0.57;;;;;;;;;;5082237;28;20046;-42
2023/01/11 03:46:17;;;;;;;1.65;0.60;;;;;;;;;;5081419;28;20028;-44
2023/01/11 03:48:46;;;;;;;1.10;0.60;;;;;;;;;;5025556;28;20493;-43
2023/01/11 03:51:13;;;;;;;0.73;0.28;;;;;;;;;;5072565;28;20028;-44
2023/01/11 03:53:39;;;;;;;0.55;0.30;;;;;;;;;;5081923;28;20405;-42
2023/01/11 03:56:07;;;;;;;0.43;0.40;;;;;;;;;;5077786;28;20032;-43
2023/01/11 03:58:33;;;;;;;0.28;0.28;;;;;;;;;;5080139;28;20017;-42
2023/01/11 04:01:00;;;;;;;0.52;0.50;;;;;;;;;;5064391;28;20033;-45
2023/01/11 04:03:27;;;;;;;1.15;0.40;;;;;;;;;;5082909;28;20028;-42
2023/01/11 04:05:56;;;;;;;0.73;0.40;;;;;;;;;;5074514;28;20486;-42
2023/01/11 04:08:22;;;;;;;0.73;0.50;;;;;;;;;;5077983;28;20024;-43
2023/01/11 04:10:48;;;;;;;0.80;0.50;;;;;;;;;;5082562;28;20377;-42
2023/01/11 04:13:14;;;;;;;0.63;0.40;;;;;;;;;;5075510;28;20825;-42
2023/01/11 04:15:40;;;;;;;0.90;0.65;;;;;;;;;;5086619;28;20141;-42
2023/01/11 04:18:06;;;;;;;0.82;0.47;;;;;;;;;;5078408;28;20028;-42
2023/01/11 04:20:33;;;;;;;0.90;0.50;;;;;;;;;;5079147;28;20055;-43
2023/01/11 04:22:59;;;;;;;0.40;0.40;;;;;;;;;;5078739;28;20098;-41
2023/01/11 04:25:26;;;;;;;0.60;0.30;;;;;;;;;;5075268;28;20025;-43
2023/01/11 04:27:52;;;;;;;1.52;0.30;;;;;;;;;;5087136;28;20048;-42
2023/01/11 04:30:18;;;;;;;0.75;0.50;;;;;;;;;;5081034;28;20512;-42
2023/01/11 04:32:44;;;;;;;1.05;0.60;;;;;;;;;;5078272;28;20036;-42
2023/01/11 04:35:10;;;;;;;0.60;0.30;;;;;;;;;;5078895;28;20027;-42
2023/01/11 04:37:36;;;;;;;0.60;0.40;;;;;;;;;;5084696;28;20069;-42
2023/01/11 04:40:02;;;;;;;1.23;0.45;;;;;;;;;;5080319;28;20481;-42
2023/01/11 04:42:28;;;;;;;0.40;0.30;;;;;;;;;;5068002;28;20032;-42
2023/01/11 04:44:54;;;;;;;0.50;0.40;;;;;;;;;;5081692;28;20027;-42
2023/01/11 04:47:21;;;;;;;1.10;0.50;;;;;;;;;;5085523;28;20052;-42
2023/01/11 04:49:48;;;;;;;0.65;0.38;;;;;;;;;;5085711;28;20032;-42
2023/01/11 04:52:15;;;;;;;0.75;0.43;;;;;;;;;;5085561;28;20105;-42
2023/01/11 04:54:41;;;;;;;0.28;0.20;;;;;;;;;;5076528;28;20165;-42
2023/01/11 04:57:07;;;;;;;0.30;0.30;;;;;;;;;;5083975;28;20106;-42
2023/01/11 04:59:33;;;;;;;0.45;0.40;;;;;;;;;;5081208;28;20077;-42
2023/01/11 05:01:59;;;;;;;1.55;0.32;;;;;;;;;;5085513;28;20443;-42
2023/01/11 05:04:25;;;;;;;0.40;0.30;;;;;;;;;;5082604;28;20035;-42
2023/01/11 05:06:51;;;;;;;0.63;0.32;;;;;;;;;;5085323;28;20408;-43
2023/01/11 05:09:18;;;;;;;0.40;0.30;;;;;;;;;;5082777;28;20099;-42
2023/01/11 05:11:44;;;;;;;0.70;0.40;;;;;;;;;;5079384;28;20099;-42
2023/01/11 05:14:10;;;;;;;0.75;0.30;;;;;;;;;;5084491;28;20032;-43
2023/01/11 05:16:36;;;;;;;0.57;0.32;;;;;;;;;;5079521;28;20027;-44
2023/01/11 05:19:03;;;;;;;0.38;0.35;;;;;;;;;;5087936;28;20074;-44
2023/01/11 05:21:34;;;;;;;0.28;0.20;;;;;;;;;;5081921;28;20020;-44
2023/01/11 05:24:01;;;;;;;0.25;0.25;;;;;;;;;;5068356;28;20511;-43
2023/01/11 05:26:31;;;;;;;0.60;0.30;;;;;;;;;;5085967;28;20024;-42
2023/01/11 05:29:02;;;;;;;0.30;0.30;;;;;;;;;;5077235;28;20078;-42
2023/01/11 05:31:28;;;;;;;0.60;0.32;;;;;;;;;;5078340;28;20074;-43
2023/01/11 05:33:58;;;;;;;0.25;0.25;;;;;;;;;;5083861;28;20020;-43
2023/01/11 05:36:24;;;;;;;0.25;0.25;;;;;;;;;;5082761;28;20111;-42
2023/01/11 05:38:51;;;;;;;0.82;0.30;;;;;;;;;;5085021;28;20027;-42
2023/01/11 05:41:17;;;;;;;1.13;0.30;;;;;;;;;;5084331;28;20248;-42
2023/01/11 05:46:30;;;;;;;0.22;0.22;;;;;;;;;;5086543;28;20097;-43
2023/01/11 05:48:57;;;;;;;0.73;0.32;;;;;;;;;;5076085;28;20043;-42
2023/01/11 05:51:24;;;;;;;0.35;0.30;;;;;;;;;;5091027;28;20090;-43
2023/01/11 05:53:50;;;;;;;0.30;0.20;;;;;;;;;;5088074;28;20044;-43
2023/01/11 05:56:16;;;;;;;0.68;0.30;;;;;;;;;;5082663;28;20139;-42
2023/01/11 05:58:42;;;;;;;1.38;0.28;;;;;;;;;;5076955;28;20521;-42
2023/01/11 06:01:08;;;;;;;1.35;0.30;;;;;;;;;;5077866;28;20073;-42
2023/01/11 06:03:34;;;;;;;0.73;0.50;;;;;;;;;;5079157;28;20040;-42
2023/01/11 06:06:00;;;;;;;0.20;0.20;;;;;;;;;;5071678;28;20186;-42
2023/01/11 06:08:26;;;;;;;0.70;0.40;;;;;;;;;;5074103;28;20418;-42
2023/01/11 06:10:52;;;;;;;0.35;0.30;;;;;;;;;;5076209;28;20549;-42
2023/01/11 06:13:28;;;;;;;0.28;0.28;;;;;;;;;;5072792;28;20208;-42
2023/01/11 06:15:55;;;;;;;0.75;0.50;;;;;;;;;;5076002;28;20017;-42
2023/01/11 06:18:21;;;;;;;3.17;0.30;;;;;;;;;;5073491;28;20033;-42
2023/01/11 06:20:50;;;;;;;1.45;0.40;;;;;;;;;;5088266;28;20020;-42
2023/01/11 06:23:16;;;;;;;1.27;0.40;;;;;;;;;;5081982;28;20508;-42
2023/01/11 06:25:43;;;;;;;2.35;0.75;;;;;;;;;;5074966;28;21797;-42
2023/01/11 06:28:09;;;;;;;1.35;0.47;;;;;;;;;;5082402;28;20107;-42
2023/01/11 06:30:35;;;;;;;0.80;0.28;;;;;;;;;;5081814;28;20138;-43
2023/01/11 06:33:04;;;;;;;1.55;0.30;;;;;;;;;;5086403;28;20110;-42
2023/01/11 06:35:36;;;;;;;0.50;0.30;;;;;;;;;;5083469;28;20046;-42
2023/01/11 06:38:02;;;;;;;2.83;0.40;;;;;;;;;;5080155;28;20012;-43
2023/01/11 06:40:28;;;;;;;2.70;0.52;;;;;;;;;;5078231;28;20061;-42
2023/01/11 06:42:55;;;;;;;1.02;0.40;;;;;;;;;;5081400;28;20040;-43
2023/01/11 06:45:21;;;;;;;2.92;0.63;;;;;;;;;;5080564;28;20017;-43
2023/01/11 06:47:47;;;;;;;1.95;0.40;;;;;;;;;;5085068;28;20016;-42
2023/01/11 06:50:13;;;;;;;2.47;0.43;;;;;;;;;;5084406;28;20076;-42
2023/01/11 06:52:38;;;;;;;1.80;0.30;;;;;;;;;;5084387;28;20397;-42
2023/01/11 06:55:05;;;;;;;2.88;0.52;;;;;;;;;;5079300;28;20029;-43
2023/01/11 06:57:32;;;;;;;0.70;0.40;;;;;;;;;;5087423;28;20077;-42
2023/01/11 06:59:58;;;;;;;3.00;0.30;;;;;;;;;;5079685;28;20416;-42
2023/01/11 07:02:25;;;;;;;12.75;0.52;;;;;;;;;;5080662;28;20394;-42
2023/01/11 07:04:51;;;;;;;1.10;0.30;;;;;;;;;;5082094;28;20028;-42
2023/01/11 07:07:17;;;;;;;2.80;0.50;;;;;;;;;;5082356;28;20046;-44
2023/01/11 07:09:43;;;;;;;2.60;0.60;;;;;;;;;;5077594;28;20024;-42
2023/01/11 07:12:09;;;;;;;1.10;0.30;;;;;;;;;;5074475;28;20082;-42
2023/01/11 07:14:35;;;;;;;0.68;0.30;;;;;;;;;;5078282;28;20099;-42
2023/01/11 07:17:01;;;;;;;1.95;0.30;;;;;;;;;;5078536;28;20026;-43
2023/01/11 07:19:27;;;;;;;1.15;0.30;;;;;;;;;;5074428;28;20032;-43
2023/01/11 07:21:53;;;;;;;2.03;0.30;;;;;;;;;;5073144;28;20100;-42
2023/01/11 07:24:19;;;;;;;1.70;0.30;;;;;;;;;;5071996;28;20611;-42
2023/01/11 07:26:45;;;;;;;2.30;1.35;;;;;;;;;;5073859;28;20070;-42
2023/01/11 07:29:11;;;;;;;2.45;1.02;;;;;;;;;;5071849;28;20028;-42
2023/01/11 07:31:37;;;;;;;1.40;0.43;;;;;;;;;;5074733;28;20024;-44
2023/01/11 07:34:03;;;;;;;0.43;0.30;;;;;;;;;;5068357;28;21007;-42
2023/01/11 07:36:29;;;;;;;1.92;0.32;;;;;;;;;;5077417;28;20029;-43
2023/01/11 07:38:55;;;;;;;0.98;0.30;;;;;;;;;;5082841;28;20142;-43
2023/01/11 07:44:06;;;;;;;12.48;1.63;;;;;;;;;;5081823;28;20055;-42
2023/01/11 07:46:32;;;;;;;4.75;1.50;;;;;;;;;;5076174;28;20031;-43
2023/01/11 07:48:58;;;;;;;7.18;2.30;;;;;;;;;;5082554;28;20170;-42
2023/01/11 07:51:24;;;;;;;6.72;1.70;;;;;;;;;;5076026;28;20048;-42
2023/01/11 07:53:50;;;;;;;6.07;1.63;;;;;;;;;;5071159;28;20036;-43
2023/01/11 07:56:16;;;;;;;3.85;1.73;;;;;;;;;;5078769;28;20020;-42
2023/01/11 07:58:42;;;;;;;9.60;1.48;;;;;;;;;;5073856;28;20035;-42
2023/01/11 08:01:08;;;;;;;5.78;1.27;;;;;;;;;;5073840;28;20074;-43
2023/01/11 08:03:34;;;;;;;5.85;1.45;;;;;;;;;;5075535;28;20043;-43
2023/01/11 08:06:00;;;;;;;11.52;2.20;;;;;;;;;;5071398;28;20052;-43
2023/01/11 08:08:26;;;;;;;3.63;1.08;;;;;;;;;;5077343;28;20428;-42
2023/01/11 08:16:21;;;;;;;5.40;1.33;;;;;;;;;;5070481;28;20030;-43
2023/01/11 08:18:49;;;;;;;3.65;1.33;;;;;;;;;;5076636;28;20389;-43
2023/01/11 08:21:16;;;;;;;4.05;0.90;;;;;;;;;;5076790;28;20401;-44
2023/01/11 08:23:42;;;;;;;3.83;1.17;;;;;;;;;;5077940;28;20036;-43
2023/01/11 08:26:08;;;;;;;3.80;1.55;;;;;;;;;;5077953;28;20540;-43
2023/01/11 08:28:34;;;;;;;5.53;1.48;;;;;;;;;;5076513;28;20063;-43
2023/01/11 08:31:06;;;;;;;4.78;0.88;;;;;;;;;;5080091;28;20039;-42
2023/01/11 08:33:32;;;;;;;3.05;0.90;;;;;;;;;;5077523;28;20688;-42
2023/01/11 08:35:58;;;;;;;3.88;1.05;;;;;;;;;;5081852;28;20021;-42
2023/01/11 08:38:24;;;;;;;3.72;0.80;;;;;;;;;;5079039;28;20535;-43
2023/01/11 08:40:50;;;;;;;3.25;0.80;;;;;;;;;;5078751;28;20103;-42
2023/01/11 08:43:16;;;;;;;4.18;1.50;;;;;;;;;;5077832;28;20592;-43
2023/01/11 08:45:41;;;;;;;6.40;1.67;;;;;;;;;;5076131;28;20020;-44
2023/01/11 08:48:07;;;;;;;2.33;0.90;;;;;;;;;;5079048;28;20035;-43
2023/01/11 08:50:33;;;;;;;3.40;1.17;;;;;;;;;;5072708;28;20039;-42
2023/01/11 08:52:59;;;;;;;3.53;0.60;;;;;;;;;;5070209;28;20100;-42
2023/01/11 08:55:25;;;;;;;2.22;1.10;;;;;;;;;;5065869;28;20051;-42
2023/01/11 08:57:51;;;;;;;2.90;0.93;;;;;;;;;;5069771;28;20124;-43
2023/01/11 09:00:17;;;;;;;3.50;0.88;;;;;;;;;;5076612;28;20016;-42
2023/01/11 09:02:44;;;;;;;3.00;0.50;;;;;;;;;;5082387;28;20071;-42
2023/01/11 09:05:10;;;;;;;5.93;0.93;;;;;;;;;;5079384;28;20044;-42
2023/01/11 09:07:36;;;;;;;4.50;1.38;;;;;;;;;;5042971;28;20131;-43
2023/01/11 09:10:02;;;;;;;2.80;0.90;;;;;;;;;;5035624;28;20108;-43
2023/01/11 09:12:28;;;;;;;2.10;0.60;;;;;;;;;;5042911;28;20107;-42
2023/01/11 09:14:55;;;;;;;1.58;0.88;;;;;;;;;;5039698;28;20128;-42
2023/01/11 09:17:21;;;;;;;1.50;0.65;;;;;;;;;;5031934;28;20029;-42
2023/01/11 09:19:47;;;;;;;4.20;0.50;;;;;;;;;;5030054;28;20022;-43
2023/01/11 09:22:13;;;;;;;1.73;0.70;;;;;;;;;;5040308;28;20022;-43
2023/01/11 09:24:39;;;;;;;2.25;1.05;;;;;;;;;;5035995;28;20029;-42
2023/01/11 09:27:05;;;;;;;3.35;1.17;;;;;;;;;;5029880;28;20027;-42
2023/01/11 09:29:31;;;;;;;1.52;0.68;;;;;;;;;;5031856;28;20428;-42
2023/01/11 09:31:58;;;;;;;3.33;0.60;;;;;;;;;;5038441;28;20076;-42
2023/01/11 09:34:26;;;;;;;4.95;0.63;;;;;;;;;;5036827;28;20108;-44
2023/01/11 09:36:52;;;;;;;1.42;0.60;;;;;;;;;;5037066;28;20055;-44
2023/01/11 09:39:21;;;;;;;2.50;0.70;;;;;;;;;;5035946;28;20101;-43
2023/01/11 09:42:06;;;;;;;2.50;0.63;;;;;;;;;;5039579;28;20127;-42
2023/01/11 09:44:35;;;;;;;1.83;0.60;;;;;;;;;;5046022;28;20754;-42
2023/01/11 09:47:11;;;;;;;2.33;0.55;;;;;;;;;;5032797;28;20029;-42
2023/01/11 09:49:39;;;;;;;2.58;0.77;;;;;;;;;;5040149;28;20037;-45
2023/01/11 09:52:27;;;;;;;1.05;0.50;;;;;;;;;;5045674;28;20080;-42
2023/01/11 09:54:53;;;;;;;2.42;0.70;;;;;;;;;;5045927;28;20033;-43
2023/01/11 09:57:22;;;;;;;2.35;0.70;;;;;;;;;;5033664;28;20600;-43
2023/01/11 09:59:59;;;;;;;1.38;0.40;;;;;;;;;;5036338;28;20090;-42
2023/01/11 10:02:25;;;;;;;5.03;0.82;;;;;;;;;;5036220;28;20470;-42
2023/01/11 10:05:09;;;;;;;2.22;0.55;;;;;;;;;;5038751;28;20108;-44
2023/01/11 10:07:56;;;;;;;1.80;0.60;;;;;;;;;;5065068;28;20742;-42
2023/01/11 10:10:46;;;;;;;1.42;0.60;;;;;;;;;;5079505;28;20051;-44
2023/01/11 10:13:22;;;;;;;1.30;0.50;;;;;;;;;;5074319;28;20039;-42
2023/01/11 10:16:08;;;;;;;1.65;0.47;;;;;;;;;;5080325;28;20535;-42
2023/01/11 10:18:37;;;;;;;3.20;1.00;;;;;;;;;;5035093;28;20470;-42
2023/01/11 10:21:08;;;;;;;3.10;0.63;;;;;;;;;;5076500;28;20029;-42
2023/01/11 10:23:45;;;;;;;1.77;0.70;;;;;;;;;;5077004;28;20041;-43
2023/01/11 10:26:22;;;;;;;2.28;0.50;;;;;;;;;;5073290;28;20035;-42
2023/01/11 10:29:06;;;;;;;1.48;0.82;;;;;;;;;;5071174;28;20027;-42
2023/01/11 10:42:30;;;;;;;1.30;0.68;;;;;;;;;;5078319;28;20044;-43
2023/01/11 10:44:59;;;;;;;1.83;0.60;;;;;;;;;;5077729;28;20111;-42
2023/01/11 10:47:29;;;;;;;1.83;0.50;;;;;;;;;;5080955;28;20035;-43
2023/01/11 10:49:59;;;;;;;1.38;0.45;;;;;;;;;;5074626;28;20036;-42
2023/01/11 10:52:43;;;;;;;2.55;0.50;;;;;;;;;;5079693;28;20108;-42
2023/01/11 10:55:19;;;;;;;9.48;0.60;;;;;;;;;;5069388;28;20073;-44
2023/01/11 10:57:55;;;;;;;1.60;0.60;;;;;;;;;;5082389;28;20024;-46
2023/01/11 11:00:25;;;;;;;0.63;0.43;;;;;;;;;;5072097;28;20107;-44
2023/01/11 11:03:06;;;;;;;1.20;0.60;;;;;;;;;;5084283;28;20043;-43
2023/01/11 11:05:38;;;;;;;0.75;0.50;;;;;;;;;;5075390;28;20029;-42
2023/01/11 11:08:10;;;;;;;1.15;0.68;;;;;;;;;;5074179;28;20056;-43
2023/01/11 11:10:48;;;;;;;0.80;0.30;;;;;;;;;;5080011;28;20032;-45
2023/01/11 11:13:14;;;;;;;1.58;0.68;;;;;;;;;;5079922;28;20028;-43
2023/01/11 11:15:49;;;;;;;0.50;0.50;;;;;;;;;;5081870;28;20031;-42
2023/01/11 11:18:15;;;;;;;1.02;0.57;;;;;;;;;;5077415;28;20028;-43
2023/01/11 11:20:42;;;;;;;2.05;0.50;;;;;;;;;;5081789;28;20039;-42
2023/01/11 11:23:13;;;;;;;1.90;0.95;;;;;;;;;;5081389;28;20118;-42
2023/01/11 11:25:41;;;;;;;1.02;0.50;;;;;;;;;;5072141;28;20033;-42
2023/01/11 11:28:22;;;;;;;0.70;0.60;;;;;;;;;;5074646;28;20019;-42
2023/01/11 11:30:51;;;;;;;0.95;0.45;;;;;;;;;;5080719;28;20119;-44
2023/01/11 11:33:22;;;;;;;2.22;0.57;;;;;;;;;;5079128;28;20608;-42
2023/01/11 11:35:56;;;;;;;1.10;0.60;;;;;;;;;;5076619;28;20107;-44
2023/01/11 11:38:28;;;;;;;1.30;0.60;;;;;;;;;;5073972;28;20024;-43
2023/01/11 11:41:03;;;;;;;1.88;0.57;;;;;;;;;;5073876;28;20024;-43
2023/01/11 11:43:30;;;;;;;2.67;0.85;;;;;;;;;;5081616;28;20028;-44
2023/01/11 11:45:58;;;;;;;1.35;0.60;;;;;;;;;;5066849;28;20033;-42
2023/01/11 11:48:25;;;;;;;1.42;0.68;;;;;;;;;;5078901;28;20024;-44
2023/01/11 11:50:52;;;;;;;1.20;0.50;;;;;;;;;;5068227;28;20413;-43
2023/01/11 11:53:26;;;;;;;1.88;0.45;;;;;;;;;;5081981;28;20028;-43
2023/01/11 11:55:53;;;;;;;0.70;0.43;;;;;;;;;;5077781;28;20085;-42
2023/01/11 11:58:21;;;;;;;1.77;0.60;;;;;;;;;;5078885;28;20566;-44
2023/01/11 12:00:50;;;;;;;1.10;0.65;;;;;;;;;;5078377;28;20029;-42
2023/01/11 12:03:19;;;;;;;4.88;1.10;;;;;;;;;;5069512;28;20108;-44
2023/01/11 12:06:03;;;;;;;0.95;0.70;;;;;;;;;;5071940;28;20389;-41
2023/01/11 12:08:31;;;;;;;4.45;0.90;;;;;;;;;;5074855;28;20048;-42
2023/01/11 12:10:59;;;;;;;0.77;0.50;;;;;;;;;;5081081;28;20024;-42
2023/01/11 12:13:45;;;;;;;2.15;0.70;;;;;;;;;;5075277;28;20040;-42
2023/01/11 12:16:21;;;;;;;0.90;0.55;;;;;;;;;;5074552;28;20026;-42
2023/01/11 12:18:48;;;;;;;1.10;0.63;;;;;;;;;;5079315;28;20070;-42
2023/01/11 12:21:17;;;;;;;2.08;0.65;;;;;;;;;;5070664;28;20104;-41
2023/01/11 12:23:43;;;;;;;0.90;0.60;;;;;;;;;;5074831;28;20107;-42
2023/01/11 12:26:26;;;;;;;1.05;0.50;;;;;;;;;;5063909;28;20028;-41
2023/01/11 12:29:11;;;;;;;1.00;0.50;;;;;;;;;;5073443;28;20021;-42
2023/01/11 12:31:46;;;;;;;1.58;0.20;;;;;;;;;;5075693;28;20025;-42
2023/01/11 12:34:41;;;;;;;0.55;0.32;;;;;;;;;;5074066;28;20035;-43
2023/01/11 12:37:16;;;;;;;1.83;0.50;;;;;;;;;;5053103;28;20063;-41
2023/01/11 12:39:49;;;;;;;0.60;0.50;;;;;;;;;;5081444;28;20032;-41
2023/01/11 12:42:21;;;;;;;1.23;0.65;;;;;;;;;;5084933;28;20038;-43
2023/01/11 12:44:50;;;;;;;5.22;0.93;;;;;;;;;;5068814;28;20037;-42
2023/01/11 12:47:35;;;;;;;1.48;0.50;;;;;;;;;;5076424;28;20063;-42
2023/01/11 12:50:18;;;;;;;1.65;1.10;;;;;;;;;;5079701;28;20032;-42
2023/01/11 12:52:44;;;;;;;0.90;0.68;;;;;;;;;;5079179;28;20046;-42
2023/01/11 12:55:20;;;;;;;1.98;0.40;;;;;;;;;;5084036;28;20024;-41
2023/01/11 12:58:04;;;;;;;0.95;0.57;;;;;;;;;;5059695;28;20431;-42
2023/01/11 13:00:48;;;;;;;0.40;0.40;;;;;;;;;;5073939;28;20024;-42
2023/01/11 13:03:20;;;;;;;1.75;0.40;;;;;;;;;;5074328;28;20036;-42
2023/01/11 13:05:59;;;;;;;1.27;0.60;;;;;;;;;;5079563;28;20035;-42
2023/01/11 13:08:30;;;;;;;2.60;0.93;;;;;;;;;;5081758;28;20028;-41
2023/01/11 13:11:04;;;;;;;2.13;0.80;;;;;;;;;;5085189;28;20056;-42
2023/01/11 13:13:45;;;;;;;0.65;0.38;;;;;;;;;;5084832;28;20032;-42
2023/01/11 13:16:16;;;;;;;1.77;0.45;;;;;;;;;;5074615;28;20072;-43
2023/01/11 13:18:59;;;;;;;2.83;0.50;;;;;;;;;;5082767;28;20414;-42
2023/01/11 13:21:25;;;;;;;1.58;0.50;;;;;;;;;;5084565;28;20481;-42
2023/01/11 13:24:11;;;;;;;1.38;0.40;;;;;;;;;;5082019;28;20063;-41
2023/01/11 13:26:47;;;;;;;2.22;0.50;;;;;;;;;;5064769;28;20037;-42
2023/01/11 13:29:39;;;;;;;1.50;0.47;;;;;;;;;;5073079;28;20024;-42
2023/01/11 13:32:07;;;;;;;1.08;0.70;;;;;;;;;;5077534;28;20043;-41
2023/01/11 13:34:39;;;;;;;1.80;0.63;;;;;;;;;;5075580;28;20036;-42
2023/01/11 13:37:08;;;;;;;1.85;0.50;;;;;;;;;;5055405;28;20378;-42
2023/01/11 13:39:43;;;;;;;0.77;0.40;;;;;;;;;;5083728;28;20481;-42
2023/01/11 13:42:12;;;;;;;0.98;0.52;;;;;;;;;;5075303;28;20127;-42
2023/01/11 13:44:41;;;;;;;0.88;0.45;;;;;;;;;;5080483;28;20098;-43
2023/01/11 13:47:07;;;;;;;0.73;0.40;;;;;;;;;;5087654;28;20099;-42
2023/01/11 13:49:45;;;;;;;0.65;0.45;;;;;;;;;;5077308;28;20514;-42
2023/01/11 13:52:11;;;;;;;0.50;0.30;;;;;;;;;;5085916;28;20023;-43
2023/01/11 13:54:57;;;;;;;0.95;0.30;;;;;;;;;;5079811;28;20504;-43
2023/01/11 13:57:32;;;;;;;1.95;0.38;;;;;;;;;;5078639;28;20028;-44
2023/01/11 14:00:02;;;;;;;0.93;0.40;;;;;;;;;;5079810;28;20038;-42
2023/01/11 14:02:31;;;;;;;2.88;0.80;;;;;;;;;;5069072;28;20555;-42
2023/01/11 14:04:57;;;;;;;2.35;0.63;;;;;;;;;;5085337;28;20123;-42
2023/01/11 14:07:35;;;;;;;1.77;0.50;;;;;;;;;;5074320;28;20135;-43
2023/01/11 14:10:13;;;;;;;0.70;0.30;;;;;;;;;;5078951;28;20070;-45
2023/01/11 14:12:50;;;;;;;1.30;0.50;;;;;;;;;;5081592;28;20167;-43
2023/01/11 14:15:22;;;;;;;0.57;0.50;;;;;;;;;;5081827;28;20023;-42
2023/01/11 14:17:51;;;;;;;0.63;0.40;;;;;;;;;;5079412;28;20081;-43
2023/01/11 14:20:23;;;;;;;1.02;0.50;;;;;;;;;;5078105;28;20032;-44
2023/01/11 14:22:57;;;;;;;1.25;0.60;;;;;;;;;;5079718;28;20418;-44
2023/01/11 14:25:37;;;;;;;2.65;1.23;;;;;;;;;;5081381;28;20031;-43
2023/01/11 14:28:03;;;;;;;2.22;0.65;;;;;;;;;;5081618;28;20024;-43
2023/01/11 14:30:44;;;;;;;2.70;0.50;;;;;;;;;;5080060;28;20031;-44
2023/01/11 14:33:28;;;;;;;1.58;0.95;;;;;;;;;;5081053;28;20032;-46
2023/01/11 14:35:55;;;;;;;1.42;0.55;;;;;;;;;;5074784;28;20033;-43
2023/01/11 14:38:41;;;;;;;1.67;0.30;;;;;;;;;;5078472;28;20106;-44
2023/01/11 14:41:31;;;;;;;1.10;0.47;;;;;;;;;;5058396;28;20043;-43
2023/01/11 14:44:15;;;;;;;0.70;0.47;;;;;;;;;;5081581;28;20024;-43
2023/01/11 14:47:00;;;;;;;1.63;0.50;;;;;;;;;;5079240;28;20032;-43
2023/01/11 14:49:43;;;;;;;0.32;0.30;;;;;;;;;;5074868;28;20025;-42
2023/01/11 14:52:11;;;;;;;2.60;0.40;;;;;;;;;;5081115;28;20028;-43
2023/01/11 14:54:39;;;;;;;1.05;0.40;;;;;;;;;;5073108;28;20036;-44
2023/01/11 14:57:05;;;;;;;2.45;0.55;;;;;;;;;;5065905;28;20029;-42
2023/01/11 14:59:32;;;;;;;1.20;0.68;;;;;;;;;;5073049;28;20025;-43
2023/01/11 15:02:04;;;;;;;0.95;0.50;;;;;;;;;;5079675;28;20094;-42
2023/01/11 15:04:30;;;;;;;;;;;;;;;;;;5080555;28;20031;-43
2023/01/11 15:06:56;;;;;;;0.32;0.32;;;;;;;;;;5077903;28;19924;-43
2023/01/11 15:09:42;;;;;;;0.30;0.30;;;;;;;;;;5077625;28;20074;-44
2023/01/11 15:12:19;;;;;;;0.80;0.50;;;;;;;;;;5071858;28;20027;-42
2023/01/11 15:14:49;;;;;;;1.10;0.52;;;;;;;;;;5068981;28;20063;-42
2023/01/11 15:20:11;;;;;;;2.08;0.80;;;;;;;;;;5070515;28;20104;-43
2023/01/11 15:22:38;;;;;;;2.63;0.57;;;;;;;;;;5071623;28;20028;-44
2023/01/11 15:25:06;;;;;;;1.75;0.73;;;;;;;;;;5069901;28;20078;-46
2023/01/11 15:27:32;;;;;;;2.10;0.75;;;;;;;;;;5072477;28;20032;-44
2023/01/11 15:29:58;;;;;;;3.40;0.60;;;;;;;;;;5071502;28;20047;-43
2023/01/11 15:32:26;;;;;;;0.30;0.30;;;;;;;;;;5070849;28;20044;-43
2023/01/11 15:34:52;;;;;;;1.45;0.60;;;;;;;;;;5073127;28;20530;-44
2023/01/11 15:37:37;;;;;;;0.82;0.40;;;;;;;;;;5075136;28;20055;-43
2023/01/11 15:40:02;;;;;;;1.70;0.50;;;;;;;;;;5073776;28;20031;-43
2023/01/11 15:42:47;;;;;;;2.88;0.75;;;;;;;;;;5079042;28;20033;-43